sensor_id;sensor_type;location;lat;lon;timestamp;temperature;humidity
20303;DHT22;10310;50.906;4.622;2022-11-04T00:01:27;9.30;99.90
20303;DHT22;10310;50.906;4.622;2022-11-04T00:03:54;9.70;99.90
20303;DHT22;10310;50.906;4.622;2022-11-04T00:06:24;9.20;99.90
20303;DHT22;10310;50.906;4.622;2022-11-04T00:09:09;9.20;99.90
20303;DHT22;10310;50.906;4.622;2022-11-04T00:11:37;9.10;99.90
20303;DHT22;10310;50.906;4.622;2022-11-04T00:14:21;9.00;99.90
20303;DHT22;10310;50.906;4.622;2022-11-04T00:16:48;9.00;99.90
20303;DHT22;10310;50.906;4.622;2022-11-04T00:19:32;9.00;99.90
20303;DHT22;10310;50.906;4.622;2022-11-04T00:22:21;8.90;99.90
20303;DHT22;10310;50.906;4.622;2022-11-04T00:25:07;8.90;99.90
20303;DHT22;10310;50.906;4.622;2022-11-04T00:27:52;9.20;99.90
20303;DHT22;10310;50.906;4.622;2022-11-04T00:30:44;8.90;99.90
20303;DHT22;10310;50.906;4.622;2022-11-04T00:33:11;8.80;99.90
20303;DHT22;10310;50.906;4.622;2022-11-04T00:35:54;8.80;99.90
20303;DHT22;10310;50.906;4.622;2022-11-04T00:38:23;8.70;99.90
20303;DHT22;10310;50.906;4.622;2022-11-04T00:40:50;8.70;99.90
20303;DHT22;10310;50.906;4.622;2022-11-04T00:43:17;8.70;99.90
20303;DHT22;10310;50.906;4.622;2022-11-04T00:45:44;9.00;99.90
20303;DHT22;10310;50.906;4.622;2022-11-04T00:48:11;8.70;99.90
20303;DHT22;10310;50.906;4.622;2022-11-04T00:50:38;8.70;99.90
20303;DHT22;10310;50.906;4.622;2022-11-04T00:53:05;8.70;99.90
20303;DHT22;10310;50.906;4.622;2022-11-04T00:55:34;8.70;99.90
20303;DHT22;10310;50.906;4.622;2022-11-04T00:58:01;8.80;99.90
20303;DHT22;10310;50.906;4.622;2022-11-04T01:00:28;8.90;99.90
20303;DHT22;10310;50.906;4.622;2022-11-04T01:02:55;9.00;99.90
20303;DHT22;10310;50.906;4.622;2022-11-04T01:05:25;9.00;99.90
20303;DHT22;10310;50.906;4.622;2022-11-04T01:07:52;9.10;99.90
20303;DHT22;10310;50.906;4.622;2022-11-04T01:10:20;9.10;99.90
20303;DHT22;10310;50.906;4.622;2022-11-04T01:12:50;9.20;99.90
20303;DHT22;10310;50.906;4.622;2022-11-04T01:15:17;9.40;99.90
20303;DHT22;10310;50.906;4.622;2022-11-04T01:17:44;9.30;99.90
20303;DHT22;10310;50.906;4.622;2022-11-04T01:20:11;9.30;99.90
20303;DHT22;10310;50.906;4.622;2022-11-04T01:22:45;9.30;99.90
20303;DHT22;10310;50.906;4.622;2022-11-04T01:25:14;9.40;99.90
20303;DHT22;10310;50.906;4.622;2022-11-04T01:27:41;9.40;99.90
20303;DHT22;10310;50.906;4.622;2022-11-04T01:30:10;9.40;99.90
20303;DHT22;10310;50.906;4.622;2022-11-04T01:32:39;9.40;99.90
20303;DHT22;10310;50.906;4.622;2022-11-04T01:35:07;9.40;99.90
20303;DHT22;10310;50.906;4.622;2022-11-04T01:37:34;9.40;99.90
20303;DHT22;10310;50.906;4.622;2022-11-04T01:40:01;9.60;99.90
20303;DHT22;10310;50.906;4.622;2022-11-04T01:42:28;9.20;99.90
20303;DHT22;10310;50.906;4.622;2022-11-04T01:44:57;9.20;99.90
20303;DHT22;10310;50.906;4.622;2022-11-04T01:47:31;9.20;99.90
20303;DHT22;10310;50.906;4.622;2022-11-04T01:50:03;9.60;99.90
20303;DHT22;10310;50.906;4.622;2022-11-04T01:55:55;9.00;99.90
20303;DHT22;10310;50.906;4.622;2022-11-04T01:58:26;8.90;99.90
20303;DHT22;10310;50.906;4.622;2022-11-04T02:00:54;8.90;99.90
20303;DHT22;10310;50.906;4.622;2022-11-04T02:03:25;8.90;99.90
20303;DHT22;10310;50.906;4.622;2022-11-04T02:05:53;8.80;99.90
20303;DHT22;10310;50.906;4.622;2022-11-04T02:08:21;8.70;99.90
20303;DHT22;10310;50.906;4.622;2022-11-04T02:10:51;8.70;99.90
20303;DHT22;10310;50.906;4.622;2022-11-04T02:13:20;8.70;99.90
20303;DHT22;10310;50.906;4.622;2022-11-04T02:15:54;8.70;99.90
20303;DHT22;10310;50.906;4.622;2022-11-04T02:18:43;8.70;99.90
20303;DHT22;10310;50.906;4.622;2022-11-04T02:21:44;8.70;99.90
20303;DHT22;10310;50.906;4.622;2022-11-04T02:24:49;8.60;99.90
20303;DHT22;10310;50.906;4.622;2022-11-04T02:27:52;8.60;99.90
20303;DHT22;10310;50.906;4.622;2022-11-04T02:30:31;8.60;99.90
20303;DHT22;10310;50.906;4.622;2022-11-04T02:33:09;8.50;99.90
20303;DHT22;10310;50.906;4.622;2022-11-04T02:35:42;8.50;99.90
20303;DHT22;10310;50.906;4.622;2022-11-04T02:38:20;8.50;99.90
20303;DHT22;10310;50.906;4.622;2022-11-04T02:40:56;8.50;99.90
20303;DHT22;10310;50.906;4.622;2022-11-04T02:43:30;8.50;99.90
20303;DHT22;10310;50.906;4.622;2022-11-04T02:46:02;8.50;99.90
20303;DHT22;10310;50.906;4.622;2022-11-04T02:48:36;8.50;99.90
20303;DHT22;10310;50.906;4.622;2022-11-04T02:51:09;8.30;99.90
20303;DHT22;10310;50.906;4.622;2022-11-04T02:53:40;8.30;99.90
20303;DHT22;10310;50.906;4.622;2022-11-04T02:56:13;8.40;99.90
20303;DHT22;10310;50.906;4.622;2022-11-04T02:58:46;8.50;99.90
20303;DHT22;10310;50.906;4.622;2022-11-04T03:01:16;8.60;99.90
20303;DHT22;10310;50.906;4.622;2022-11-04T03:03:47;9.10;99.90
20303;DHT22;10310;50.906;4.622;2022-11-04T03:06:21;8.70;99.90
20303;DHT22;10310;50.906;4.622;2022-11-04T03:08:51;8.70;99.90
20303;DHT22;10310;50.906;4.622;2022-11-04T03:11:22;8.70;99.90
20303;DHT22;10310;50.906;4.622;2022-11-04T03:13:56;9.00;99.90
20303;DHT22;10310;50.906;4.622;2022-11-04T03:16:29;8.80;99.90
20303;DHT22;10310;50.906;4.622;2022-11-04T03:19:01;8.80;99.90
20303;DHT22;10310;50.906;4.622;2022-11-04T03:21:32;8.80;99.90
20303;DHT22;10310;50.906;4.622;2022-11-04T03:24:01;8.80;99.90
20303;DHT22;10310;50.906;4.622;2022-11-04T03:26:32;9.50;99.90
20303;DHT22;10310;50.906;4.622;2022-11-04T03:29:12;8.80;99.90
20303;DHT22;10310;50.906;4.622;2022-11-04T03:31:46;8.90;99.90
20303;DHT22;10310;50.906;4.622;2022-11-04T03:34:16;8.90;99.90
20303;DHT22;10310;50.906;4.622;2022-11-04T03:36:43;9.10;99.90
20303;DHT22;10310;50.906;4.622;2022-11-04T03:39:10;8.90;99.90
20303;DHT22;10310;50.906;4.622;2022-11-04T03:41:41;9.00;99.90
20303;DHT22;10310;50.906;4.622;2022-11-04T03:44:09;8.10;99.90
20303;DHT22;10310;50.906;4.622;2022-11-04T03:46:38;9.00;99.90
20303;DHT22;10310;50.906;4.622;2022-11-04T03:49:07;9.10;99.90
20303;DHT22;10310;50.906;4.622;2022-11-04T03:51:35;9.10;99.90
20303;DHT22;10310;50.906;4.622;2022-11-04T03:54:03;9.10;99.90
20303;DHT22;10310;50.906;4.622;2022-11-04T03:56:47;9.10;99.90
20303;DHT22;10310;50.906;4.622;2022-11-04T04:02:12;9.10;99.90
20303;DHT22;10310;50.906;4.622;2022-11-04T04:04:46;9.00;99.90
20303;DHT22;10310;50.906;4.622;2022-11-04T04:07:18;9.10;99.90
20303;DHT22;10310;50.906;4.622;2022-11-04T04:09:52;9.20;99.90
20303;DHT22;10310;50.906;4.622;2022-11-04T04:12:29;9.20;99.90
20303;DHT22;10310;50.906;4.622;2022-11-04T04:15:02;9.20;99.90
20303;DHT22;10310;50.906;4.622;2022-11-04T04:17:33;9.20;99.90
20303;DHT22;10310;50.906;4.622;2022-11-04T04:20:07;9.30;99.90
20303;DHT22;10310;50.906;4.622;2022-11-04T04:22:39;9.30;99.90
20303;DHT22;10310;50.906;4.622;2022-11-04T04:25:09;9.50;99.90
20303;DHT22;10310;50.906;4.622;2022-11-04T04:27:56;9.30;99.90
20303;DHT22;10310;50.906;4.622;2022-11-04T04:30:25;9.40;99.90
20303;DHT22;10310;50.906;4.622;2022-11-04T04:32:56;9.50;99.90
20303;DHT22;10310;50.906;4.622;2022-11-04T04:35:28;9.30;99.90
20303;DHT22;10310;50.906;4.622;2022-11-04T04:38:14;9.30;99.90
20303;DHT22;10310;50.906;4.622;2022-11-04T04:41:05;9.30;99.90
20303;DHT22;10310;50.906;4.622;2022-11-04T04:43:53;9.30;99.90
20303;DHT22;10310;50.906;4.622;2022-11-04T04:46:38;9.30;99.90
20303;DHT22;10310;50.906;4.622;2022-11-04T04:49:06;9.30;99.90
20303;DHT22;10310;50.906;4.622;2022-11-04T04:51:40;9.30;99.90
20303;DHT22;10310;50.906;4.622;2022-11-04T04:54:09;9.40;99.90
20303;DHT22;10310;50.906;4.622;2022-11-04T04:56:36;9.40;99.90
20303;DHT22;10310;50.906;4.622;2022-11-04T04:59:03;9.40;99.90
20303;DHT22;10310;50.906;4.622;2022-11-04T05:01:30;9.50;99.90
20303;DHT22;10310;50.906;4.622;2022-11-04T05:03:58;9.50;99.90
20303;DHT22;10310;50.906;4.622;2022-11-04T05:06:25;9.50;99.90
20303;DHT22;10310;50.906;4.622;2022-11-04T05:08:54;9.50;99.90
20303;DHT22;10310;50.906;4.622;2022-11-04T05:11:21;9.40;99.90
20303;DHT22;10310;50.906;4.622;2022-11-04T05:13:50;9.30;99.90
20303;DHT22;10310;50.906;4.622;2022-11-04T05:16:17;9.30;99.90
20303;DHT22;10310;50.906;4.622;2022-11-04T05:18:45;9.40;99.90
20303;DHT22;10310;50.906;4.622;2022-11-04T05:21:14;9.40;99.90
20303;DHT22;10310;50.906;4.622;2022-11-04T05:23:41;9.40;99.90
20303;DHT22;10310;50.906;4.622;2022-11-04T05:26:10;9.40;99.90
20303;DHT22;10310;50.906;4.622;2022-11-04T05:28:42;9.50;99.90
20303;DHT22;10310;50.906;4.622;2022-11-04T05:31:09;9.50;99.90
20303;DHT22;10310;50.906;4.622;2022-11-04T05:33:36;8.90;99.90
20303;DHT22;10310;50.906;4.622;2022-11-04T05:36:07;9.50;99.90
20303;DHT22;10310;50.906;4.622;2022-11-04T05:38:35;9.60;99.90
20303;DHT22;10310;50.906;4.622;2022-11-04T05:41:02;9.60;99.90
20303;DHT22;10310;50.906;4.622;2022-11-04T05:43:30;9.70;99.90
20303;DHT22;10310;50.906;4.622;2022-11-04T05:45:58;9.70;99.90
20303;DHT22;10310;50.906;4.622;2022-11-04T05:48:25;9.60;99.90
20303;DHT22;10310;50.906;4.622;2022-11-04T05:50:55;9.60;99.90
20303;DHT22;10310;50.906;4.622;2022-11-04T05:53:22;9.60;99.90
20303;DHT22;10310;50.906;4.622;2022-11-04T05:55:49;9.60;99.90
20303;DHT22;10310;50.906;4.622;2022-11-04T05:58:16;9.60;99.90
20303;DHT22;10310;50.906;4.622;2022-11-04T06:00:44;9.70;99.90
20303;DHT22;10310;50.906;4.622;2022-11-04T06:03:12;9.60;99.90
20303;DHT22;10310;50.906;4.622;2022-11-04T06:05:39;9.70;99.90
20303;DHT22;10310;50.906;4.622;2022-11-04T06:08:06;9.70;99.90
20303;DHT22;10310;50.906;4.622;2022-11-04T06:10:33;9.70;99.90
20303;DHT22;10310;50.906;4.622;2022-11-04T06:13:00;9.70;99.90
20303;DHT22;10310;50.906;4.622;2022-11-04T06:15:27;9.70;99.90
20303;DHT22;10310;50.906;4.622;2022-11-04T06:17:55;9.70;99.90
20303;DHT22;10310;50.906;4.622;2022-11-04T06:20:23;9.60;99.90
20303;DHT22;10310;50.906;4.622;2022-11-04T06:22:56;9.60;99.90
20303;DHT22;10310;50.906;4.622;2022-11-04T06:25:23;9.60;99.90
20303;DHT22;10310;50.906;4.622;2022-11-04T06:27:50;9.60;99.90
20303;DHT22;10310;50.906;4.622;2022-11-04T06:30:17;9.60;99.90
20303;DHT22;10310;50.906;4.622;2022-11-04T06:32:45;9.60;99.90
20303;DHT22;10310;50.906;4.622;2022-11-04T06:35:13;9.60;99.90
20303;DHT22;10310;50.906;4.622;2022-11-04T06:37:40;9.60;99.90
20303;DHT22;10310;50.906;4.622;2022-11-04T06:40:08;9.60;99.90
20303;DHT22;10310;50.906;4.622;2022-11-04T06:42:35;9.60;99.90
20303;DHT22;10310;50.906;4.622;2022-11-04T06:45:03;9.50;99.90
20303;DHT22;10310;50.906;4.622;2022-11-04T06:47:30;9.60;99.90
20303;DHT22;10310;50.906;4.622;2022-11-04T06:49:57;9.60;99.90
20303;DHT22;10310;50.906;4.622;2022-11-04T06:52:25;9.60;99.90
20303;DHT22;10310;50.906;4.622;2022-11-04T06:54:52;9.60;99.90
20303;DHT22;10310;50.906;4.622;2022-11-04T06:57:19;9.60;99.90
20303;DHT22;10310;50.906;4.622;2022-11-04T06:59:46;9.60;99.90
20303;DHT22;10310;50.906;4.622;2022-11-04T07:02:12;9.60;99.90
20303;DHT22;10310;50.906;4.622;2022-11-04T07:04:39;9.60;99.90
20303;DHT22;10310;50.906;4.622;2022-11-04T07:07:06;10.20;99.90
20303;DHT22;10310;50.906;4.622;2022-11-04T07:09:35;9.60;99.90
20303;DHT22;10310;50.906;4.622;2022-11-04T07:12:02;10.40;99.90
20303;DHT22;10310;50.906;4.622;2022-11-04T07:14:29;9.70;99.90
20303;DHT22;10310;50.906;4.622;2022-11-04T07:16:56;9.70;99.90
20303;DHT22;10310;50.906;4.622;2022-11-04T07:19:23;10.00;99.90
20303;DHT22;10310;50.906;4.622;2022-11-04T07:21:50;9.80;99.90
20303;DHT22;10310;50.906;4.622;2022-11-04T07:24:17;9.80;99.90
20303;DHT22;10310;50.906;4.622;2022-11-04T07:26:45;9.80;99.90
20303;DHT22;10310;50.906;4.622;2022-11-04T07:29:12;10.00;99.90
20303;DHT22;10310;50.906;4.622;2022-11-04T07:31:39;9.70;99.90
20303;DHT22;10310;50.906;4.622;2022-11-04T07:34:06;9.80;99.90
20303;DHT22;10310;50.906;4.622;2022-11-04T07:36:33;9.80;99.90
20303;DHT22;10310;50.906;4.622;2022-11-04T07:38:59;9.80;99.90
20303;DHT22;10310;50.906;4.622;2022-11-04T07:41:26;9.80;99.90
20303;DHT22;10310;50.906;4.622;2022-11-04T07:43:55;9.80;99.90
20303;DHT22;10310;50.906;4.622;2022-11-04T07:46:23;9.80;99.90
20303;DHT22;10310;50.906;4.622;2022-11-04T07:48:50;9.90;99.90
20303;DHT22;10310;50.906;4.622;2022-11-04T07:51:19;10.00;99.90
20303;DHT22;10310;50.906;4.622;2022-11-04T07:53:46;10.10;99.90
20303;DHT22;10310;50.906;4.622;2022-11-04T07:56:13;10.30;99.90
20303;DHT22;10310;50.906;4.622;2022-11-04T07:58:41;10.30;99.90
20303;DHT22;10310;50.906;4.622;2022-11-04T08:01:11;10.40;99.90
20303;DHT22;10310;50.906;4.622;2022-11-04T08:03:39;10.40;99.90
20303;DHT22;10310;50.906;4.622;2022-11-04T08:06:07;10.40;99.90
20303;DHT22;10310;50.906;4.622;2022-11-04T08:08:34;11.00;99.90
20303;DHT22;10310;50.906;4.622;2022-11-04T08:11:04;10.30;99.90
20303;DHT22;10310;50.906;4.622;2022-11-04T08:13:32;10.30;99.90
20303;DHT22;10310;50.906;4.622;2022-11-04T08:16:01;10.80;99.90
20303;DHT22;10310;50.906;4.622;2022-11-04T08:18:32;10.10;99.90
20303;DHT22;10310;50.906;4.622;2022-11-04T08:20:59;10.10;99.90
20303;DHT22;10310;50.906;4.622;2022-11-04T08:23:27;10.10;99.90
20303;DHT22;10310;50.906;4.622;2022-11-04T08:25:54;10.10;99.90
20303;DHT22;10310;50.906;4.622;2022-11-04T08:28:21;10.10;99.90
20303;DHT22;10310;50.906;4.622;2022-11-04T08:30:52;10.30;99.90
20303;DHT22;10310;50.906;4.622;2022-11-04T08:33:19;10.10;99.90
20303;DHT22;10310;50.906;4.622;2022-11-04T08:35:48;10.50;99.90
20303;DHT22;10310;50.906;4.622;2022-11-04T08:38:15;10.20;99.90
20303;DHT22;10310;50.906;4.622;2022-11-04T08:40:42;10.20;99.90
20303;DHT22;10310;50.906;4.622;2022-11-04T08:43:09;10.20;99.90
20303;DHT22;10310;50.906;4.622;2022-11-04T08:45:38;10.30;99.90
20303;DHT22;10310;50.906;4.622;2022-11-04T08:48:06;10.40;99.90
20303;DHT22;10310;50.906;4.622;2022-11-04T08:50:33;10.40;99.90
20303;DHT22;10310;50.906;4.622;2022-11-04T08:53:02;10.40;99.90
20303;DHT22;10310;50.906;4.622;2022-11-04T08:55:30;10.40;99.90
20303;DHT22;10310;50.906;4.622;2022-11-04T08:57:57;10.40;99.90
20303;DHT22;10310;50.906;4.622;2022-11-04T09:00:24;10.40;99.90
20303;DHT22;10310;50.906;4.622;2022-11-04T09:02:51;10.40;99.90
20303;DHT22;10310;50.906;4.622;2022-11-04T09:05:20;10.40;99.90
20303;DHT22;10310;50.906;4.622;2022-11-04T09:07:47;10.50;99.90
20303;DHT22;10310;50.906;4.622;2022-11-04T09:10:16;10.50;99.90
20303;DHT22;10310;50.906;4.622;2022-11-04T09:12:43;10.60;99.90
20303;DHT22;10310;50.906;4.622;2022-11-04T09:15:11;10.60;99.90
20303;DHT22;10310;50.906;4.622;2022-11-04T09:17:38;10.60;99.90
20303;DHT22;10310;50.906;4.622;2022-11-04T09:20:06;10.50;99.90
20303;DHT22;10310;50.906;4.622;2022-11-04T09:22:33;10.50;99.90
20303;DHT22;10310;50.906;4.622;2022-11-04T09:25:00;10.50;99.90
20303;DHT22;10310;50.906;4.622;2022-11-04T09:27:28;10.60;99.90
20303;DHT22;10310;50.906;4.622;2022-11-04T09:29:55;11.30;99.90
20303;DHT22;10310;50.906;4.622;2022-11-04T09:32:22;10.70;99.90
20303;DHT22;10310;50.906;4.622;2022-11-04T09:34:49;10.80;99.90
20303;DHT22;10310;50.906;4.622;2022-11-04T09:37:16;10.90;99.90
20303;DHT22;10310;50.906;4.622;2022-11-04T09:39:43;11.10;99.90
20303;DHT22;10310;50.906;4.622;2022-11-04T09:42:30;11.20;99.90
20303;DHT22;10310;50.906;4.622;2022-11-04T09:45:01;11.40;99.90
20303;DHT22;10310;50.906;4.622;2022-11-04T09:47:30;11.60;99.90
20303;DHT22;10310;50.906;4.622;2022-11-04T09:49:59;11.90;99.90
20303;DHT22;10310;50.906;4.622;2022-11-04T09:52:29;11.90;99.90
20303;DHT22;10310;50.906;4.622;2022-11-04T09:55:00;12.10;99.90
20303;DHT22;10310;50.906;4.622;2022-11-04T09:57:32;12.30;99.90
20303;DHT22;10310;50.906;4.622;2022-11-04T09:59:59;12.40;99.90
20303;DHT22;10310;50.906;4.622;2022-11-04T10:02:36;12.50;99.90
20303;DHT22;10310;50.906;4.622;2022-11-04T10:05:14;12.50;99.90
20303;DHT22;10310;50.906;4.622;2022-11-04T10:08:08;12.50;99.90
20303;DHT22;10310;50.906;4.622;2022-11-04T10:10:45;12.60;99.90
20303;DHT22;10310;50.906;4.622;2022-11-04T10:13:24;12.60;99.90
20303;DHT22;10310;50.906;4.622;2022-11-04T10:16:04;12.50;99.90
20303;DHT22;10310;50.906;4.622;2022-11-04T10:18:48;12.50;99.90
20303;DHT22;10310;50.906;4.622;2022-11-04T10:21:42;12.40;99.90
20303;DHT22;10310;50.906;4.622;2022-11-04T10:24:18;12.30;99.90
20303;DHT22;10310;50.906;4.622;2022-11-04T10:26:48;12.30;99.90
20303;DHT22;10310;50.906;4.622;2022-11-04T10:29:25;12.30;99.90
20303;DHT22;10310;50.906;4.622;2022-11-04T10:31:55;12.30;99.90
20303;DHT22;10310;50.906;4.622;2022-11-04T10:34:31;12.20;99.90
20303;DHT22;10310;50.906;4.622;2022-11-04T10:37:00;12.10;99.90
20303;DHT22;10310;50.906;4.622;2022-11-04T10:39:29;12.00;99.90
20303;DHT22;10310;50.906;4.622;2022-11-04T10:41:57;11.80;99.90
20303;DHT22;10310;50.906;4.622;2022-11-04T10:44:28;12.00;99.90
20303;DHT22;10310;50.906;4.622;2022-11-04T10:47:03;12.00;99.90
20303;DHT22;10310;50.906;4.622;2022-11-04T10:49:48;11.90;99.90
20303;DHT22;10310;50.906;4.622;2022-11-04T10:52:19;12.10;99.90
20303;DHT22;10310;50.906;4.622;2022-11-04T10:54:47;12.10;99.90
20303;DHT22;10310;50.906;4.622;2022-11-04T10:57:17;12.30;99.90
20303;DHT22;10310;50.906;4.622;2022-11-04T10:59:51;12.20;99.90
20303;DHT22;10310;50.906;4.622;2022-11-04T11:02:43;12.30;99.90
20303;DHT22;10310;50.906;4.622;2022-11-04T11:05:20;12.10;99.90
20303;DHT22;10310;50.906;4.622;2022-11-04T11:07:50;12.20;99.90
20303;DHT22;10310;50.906;4.622;2022-11-04T11:10:20;12.00;99.90
20303;DHT22;10310;50.906;4.622;2022-11-04T11:12:53;12.10;99.90
20303;DHT22;10310;50.906;4.622;2022-11-04T11:15:33;12.30;99.90
20303;DHT22;10310;50.906;4.622;2022-11-04T11:18:12;12.40;99.90
20303;DHT22;10310;50.906;4.622;2022-11-04T11:20:40;12.20;99.90
20303;DHT22;10310;50.906;4.622;2022-11-04T11:23:36;12.20;99.90
20303;DHT22;10310;50.906;4.622;2022-11-04T11:26:05;12.30;99.90
20303;DHT22;10310;50.906;4.622;2022-11-04T11:28:34;12.50;99.90
20303;DHT22;10310;50.906;4.622;2022-11-04T11:31:07;12.60;99.90
20303;DHT22;10310;50.906;4.622;2022-11-04T11:33:44;12.30;99.90
20303;DHT22;10310;50.906;4.622;2022-11-04T11:36:17;12.40;99.90
20303;DHT22;10310;50.906;4.622;2022-11-04T11:38:59;12.40;99.90
20303;DHT22;10310;50.906;4.622;2022-11-04T11:41:28;12.70;99.90
20303;DHT22;10310;50.906;4.622;2022-11-04T11:43:59;12.70;99.90
20303;DHT22;10310;50.906;4.622;2022-11-04T11:46:30;12.70;99.90
20303;DHT22;10310;50.906;4.622;2022-11-04T11:48:58;12.80;99.90
20303;DHT22;10310;50.906;4.622;2022-11-04T11:51:29;12.70;99.90
20303;DHT22;10310;50.906;4.622;2022-11-04T11:54:15;12.40;99.90
20303;DHT22;10310;50.906;4.622;2022-11-04T11:56:46;12.10;99.90
20303;DHT22;10310;50.906;4.622;2022-11-04T11:59:27;12.00;99.90
20303;DHT22;10310;50.906;4.622;2022-11-04T12:02:13;11.90;99.90
20303;DHT22;10310;50.906;4.622;2022-11-04T12:04:45;11.80;99.90
20303;DHT22;10310;50.906;4.622;2022-11-04T12:07:19;11.80;99.90
20303;DHT22;10310;50.906;4.622;2022-11-04T12:09:52;12.00;99.90
20303;DHT22;10310;50.906;4.622;2022-11-04T12:12:33;11.90;99.90
20303;DHT22;10310;50.906;4.622;2022-11-04T12:15:16;11.90;99.90
20303;DHT22;10310;50.906;4.622;2022-11-04T12:18:00;12.10;99.90
20303;DHT22;10310;50.906;4.622;2022-11-04T12:20:40;12.20;99.90
20303;DHT22;10310;50.906;4.622;2022-11-04T12:23:15;12.20;99.90
20303;DHT22;10310;50.906;4.622;2022-11-04T12:25:54;12.00;99.90
20303;DHT22;10310;50.906;4.622;2022-11-04T12:28:34;12.00;99.90
20303;DHT22;10310;50.906;4.622;2022-11-04T12:31:13;12.10;99.90
20303;DHT22;10310;50.906;4.622;2022-11-04T12:33:48;12.40;99.90
20303;DHT22;10310;50.906;4.622;2022-11-04T12:36:35;12.40;99.90
20303;DHT22;10310;50.906;4.622;2022-11-04T12:39:19;12.40;99.90
20303;DHT22;10310;50.906;4.622;2022-11-04T12:56:05;12.20;99.90
20303;DHT22;10310;50.906;4.622;2022-11-04T12:58:42;12.40;99.90
20303;DHT22;10310;50.906;4.622;2022-11-04T13:01:14;12.50;99.90
20303;DHT22;10310;50.906;4.622;2022-11-04T13:03:47;12.60;99.90
20303;DHT22;10310;50.906;4.622;2022-11-04T13:06:17;12.60;99.90
20303;DHT22;10310;50.906;4.622;2022-11-04T13:08:49;12.80;99.90
20303;DHT22;10310;50.906;4.622;2022-11-04T13:11:22;12.80;99.90
20303;DHT22;10310;50.906;4.622;2022-11-04T13:13:57;13.20;99.90
20303;DHT22;10310;50.906;4.622;2022-11-04T13:16:26;13.00;99.90
20303;DHT22;10310;50.906;4.622;2022-11-04T13:18:55;12.80;99.90
20303;DHT22;10310;50.906;4.622;2022-11-04T13:21:24;12.80;99.90
20303;DHT22;10310;50.906;4.622;2022-11-04T13:23:57;12.90;99.90
20303;DHT22;10310;50.906;4.622;2022-11-04T13:26:26;12.90;99.90
20303;DHT22;10310;50.906;4.622;2022-11-04T13:28:57;13.30;99.90
20303;DHT22;10310;50.906;4.622;2022-11-04T13:31:33;13.30;99.90
20303;DHT22;10310;50.906;4.622;2022-11-04T13:34:10;12.90;99.90
20303;DHT22;10310;50.906;4.622;2022-11-04T13:36:44;13.00;99.90
20303;DHT22;10310;50.906;4.622;2022-11-04T13:39:18;12.80;99.90
20303;DHT22;10310;50.906;4.622;2022-11-04T13:44:44;13.00;99.90
20303;DHT22;10310;50.906;4.622;2022-11-04T13:47:17;13.30;99.90
20303;DHT22;10310;50.906;4.622;2022-11-04T13:49:48;13.30;99.90
20303;DHT22;10310;50.906;4.622;2022-11-04T13:52:16;13.10;99.90
20303;DHT22;10310;50.906;4.622;2022-11-04T13:54:45;13.10;99.90
20303;DHT22;10310;50.906;4.622;2022-11-04T13:57:20;12.90;99.90
20303;DHT22;10310;50.906;4.622;2022-11-04T14:00:18;12.90;99.90
20303;DHT22;10310;50.906;4.622;2022-11-04T14:02:46;12.80;99.90
20303;DHT22;10310;50.906;4.622;2022-11-04T14:05:44;12.80;99.90
20303;DHT22;10310;50.906;4.622;2022-11-04T14:08:13;12.80;99.90
20303;DHT22;10310;50.906;4.622;2022-11-04T14:10:45;12.80;99.90
20303;DHT22;10310;50.906;4.622;2022-11-04T14:16:42;12.90;99.90
20303;DHT22;10310;50.906;4.622;2022-11-04T14:22:30;12.70;99.90
20303;DHT22;10310;50.906;4.622;2022-11-04T14:24:59;12.50;99.90
20303;DHT22;10310;50.906;4.622;2022-11-04T14:27:35;12.30;99.90
20303;DHT22;10310;50.906;4.622;2022-11-04T14:30:08;12.30;99.90
20303;DHT22;10310;50.906;4.622;2022-11-04T14:32:54;12.20;99.90
20303;DHT22;10310;50.906;4.622;2022-11-04T14:35:22;12.10;99.90
20303;DHT22;10310;50.906;4.622;2022-11-04T14:37:51;12.00;99.90
20303;DHT22;10310;50.906;4.622;2022-11-04T14:40:24;12.00;99.90
20303;DHT22;10310;50.906;4.622;2022-11-04T14:42:53;11.90;99.90
20303;DHT22;10310;50.906;4.622;2022-11-04T14:45:23;12.00;99.90
20303;DHT22;10310;50.906;4.622;2022-11-04T14:47:53;12.10;99.90
20303;DHT22;10310;50.906;4.622;2022-11-04T14:50:24;12.10;99.90
20303;DHT22;10310;50.906;4.622;2022-11-04T14:52:54;12.10;99.90
20303;DHT22;10310;50.906;4.622;2022-11-04T14:55:23;12.10;99.90
20303;DHT22;10310;50.906;4.622;2022-11-04T14:57:52;12.10;99.90
20303;DHT22;10310;50.906;4.622;2022-11-04T15:00:30;12.10;99.90
20303;DHT22;10310;50.906;4.622;2022-11-04T15:03:04;12.00;99.90
20303;DHT22;10310;50.906;4.622;2022-11-04T15:05:32;12.10;99.90
20303;DHT22;10310;50.906;4.622;2022-11-04T15:10:48;12.10;99.90
20303;DHT22;10310;50.906;4.622;2022-11-04T15:13:18;12.00;99.90
20303;DHT22;10310;50.906;4.622;2022-11-04T15:15:47;11.90;99.90
20303;DHT22;10310;50.906;4.622;2022-11-04T15:18:18;11.70;99.90
20303;DHT22;10310;50.906;4.622;2022-11-04T15:20:47;11.70;99.90
20303;DHT22;10310;50.906;4.622;2022-11-04T15:23:24;11.60;99.90
20303;DHT22;10310;50.906;4.622;2022-11-04T15:25:52;11.50;99.90
20303;DHT22;10310;50.906;4.622;2022-11-04T15:28:21;11.40;99.90
20303;DHT22;10310;50.906;4.622;2022-11-04T15:30:59;11.30;99.90
20303;DHT22;10310;50.906;4.622;2022-11-04T15:33:27;11.20;99.90
20303;DHT22;10310;50.906;4.622;2022-11-04T15:35:55;11.30;99.90
20303;DHT22;10310;50.906;4.622;2022-11-04T15:38:24;11.20;99.90
20303;DHT22;10310;50.906;4.622;2022-11-04T15:40:53;11.20;99.90
20303;DHT22;10310;50.906;4.622;2022-11-04T15:43:20;11.20;99.90
20303;DHT22;10310;50.906;4.622;2022-11-04T15:45:51;11.20;99.90
20303;DHT22;10310;50.906;4.622;2022-11-04T15:48:22;11.00;99.90
20303;DHT22;10310;50.906;4.622;2022-11-04T15:51:00;11.00;99.90
20303;DHT22;10310;50.906;4.622;2022-11-04T15:53:31;11.00;99.90
20303;DHT22;10310;50.906;4.622;2022-11-04T15:55:59;10.90;99.90
20303;DHT22;10310;50.906;4.622;2022-11-04T15:58:26;10.90;99.90
20303;DHT22;10310;50.906;4.622;2022-11-04T16:00:54;10.80;99.90
20303;DHT22;10310;50.906;4.622;2022-11-04T16:03:23;10.70;99.90
20303;DHT22;10310;50.906;4.622;2022-11-04T16:06:00;10.60;99.90
20303;DHT22;10310;50.906;4.622;2022-11-04T16:08:29;10.50;99.90
20303;DHT22;10310;50.906;4.622;2022-11-04T16:11:11;10.40;99.90
20303;DHT22;10310;50.906;4.622;2022-11-04T16:13:39;10.40;99.90
20303;DHT22;10310;50.906;4.622;2022-11-04T16:16:14;10.40;99.90
20303;DHT22;10310;50.906;4.622;2022-11-04T16:18:49;10.40;99.90
20303;DHT22;10310;50.906;4.622;2022-11-04T16:21:23;10.30;99.90
20303;DHT22;10310;50.906;4.622;2022-11-04T16:23:55;10.30;99.90
20303;DHT22;10310;50.906;4.622;2022-11-04T16:26:24;10.40;99.90
20303;DHT22;10310;50.906;4.622;2022-11-04T16:28:53;10.40;99.90
20303;DHT22;10310;50.906;4.622;2022-11-04T16:31:26;10.40;99.90
20303;DHT22;10310;50.906;4.622;2022-11-04T16:33:55;10.40;99.90
20303;DHT22;10310;50.906;4.622;2022-11-04T16:36:22;10.40;99.90
20303;DHT22;10310;50.906;4.622;2022-11-04T16:38:53;10.40;99.90